createdAt,value
2018-03-28T00:02:11.353Z,17.30
2018-03-28T00:04:38.876Z,17.55
2018-03-28T00:07:06.390Z,17.77
2018-03-28T00:09:33.921Z,17.12
2018-03-28T00:12:01.425Z,17.25
2018-03-28T00:14:28.929Z,18.87
2018-03-28T00:16:56.437Z,18.45
2018-03-28T00:19:23.944Z,18.70
2018-03-28T00:21:52.250Z,18.77
2018-03-28T00:24:19.755Z,18.83
2018-03-28T00:26:47.386Z,18.98
2018-03-28T00:29:14.889Z,19.05
2018-03-28T00:31:43.153Z,20.23
2018-03-28T00:34:10.651Z,20.50
2018-03-28T00:36:38.140Z,19.17
2018-03-28T00:39:05.678Z,19.80
2018-03-28T00:41:33.171Z,20.50
2018-03-28T00:44:00.700Z,20.62
2018-03-28T00:46:29.004Z,20.85
2018-03-28T00:48:56.508Z,21.40
2018-03-28T00:51:35.689Z,19.80
2018-03-28T00:54:03.208Z,20.98
2018-03-28T00:56:30.703Z,21.15
2018-03-28T00:58:58.187Z,21.12
2018-03-28T01:01:25.684Z,21.58
2018-03-28T01:03:54.360Z,21.17
2018-03-28T01:06:22.621Z,21.80
2018-03-28T01:08:50.940Z,19.98
2018-03-28T01:11:18.444Z,20.62
2018-03-28T01:13:45.956Z,22.13
2018-03-28T01:16:13.439Z,21.62
2018-03-28T01:18:41.601Z,22.40
2018-03-28T01:21:09.106Z,22.52
2018-03-28T01:23:36.624Z,21.00
2018-03-28T01:26:04.124Z,22.83
2018-03-28T01:28:31.628Z,22.55
2018-03-28T01:30:59.137Z,21.77
2018-03-28T01:33:26.748Z,22.05
2018-03-28T01:35:54.243Z,22.65
2018-03-28T01:38:21.749Z,22.10
2018-03-28T01:40:49.256Z,21.60
2018-03-28T01:43:16.745Z,21.75
2018-03-28T01:45:45.029Z,22.02
2018-03-28T01:48:13.288Z,22.98
2018-03-28T01:50:41.570Z,23.55
2018-03-28T01:53:09.066Z,23.33
2018-03-28T01:55:36.626Z,23.48
2018-03-28T01:58:04.177Z,22.58
2018-03-28T02:00:31.676Z,23.95
2018-03-28T02:02:59.179Z,24.00
2018-03-28T02:05:27.479Z,24.05
2018-03-28T02:07:55.008Z,23.45
2018-03-28T02:10:23.275Z,25.23
2018-03-28T02:12:50.811Z,24.70
2018-03-28T02:15:19.880Z,25.85
2018-03-28T02:17:47.374Z,24.40
2018-03-28T02:20:14.900Z,24.20
2018-03-28T02:22:42.404Z,25.60
2018-03-28T02:25:09.929Z,26.95
2018-03-28T02:27:37.438Z,26.65
2018-03-28T02:30:05.790Z,26.77
2018-03-28T02:32:33.294Z,26.58
2018-03-28T02:35:00.842Z,27.20
2018-03-28T02:40:02.277Z,27.80
2018-03-28T02:42:29.775Z,27.80
2018-03-28T02:44:57.283Z,27.50
2018-03-28T02:47:24.799Z,28.73
2018-03-28T02:49:52.328Z,27.67
2018-03-28T02:52:20.597Z,27.00
2018-03-28T02:54:48.108Z,30.05
2018-03-28T02:57:15.607Z,30.73
2018-03-28T02:59:43.125Z,29.67
2018-03-28T03:02:10.773Z,28.98
2018-03-28T03:04:38.311Z,29.45
2018-03-28T03:07:06.560Z,30.77
2018-03-28T03:09:34.082Z,30.42
2018-03-28T03:12:01.563Z,30.15
2018-03-28T03:14:29.095Z,29.25
2018-03-28T03:16:56.598Z,29.35
2018-03-28T03:19:24.177Z,29.42
2018-03-28T03:21:52.434Z,29.50
2018-03-28T03:24:19.937Z,28.05
2018-03-28T03:26:47.444Z,29.25
2018-03-28T03:29:14.951Z,29.10
2018-03-28T03:31:42.466Z,30.25
2018-03-28T03:34:09.981Z,29.23
2018-03-28T03:36:37.475Z,30.42
2018-03-28T03:39:05.016Z,28.77
2018-03-28T03:41:32.532Z,29.60
2018-03-28T03:44:00.793Z,28.90
2018-03-28T03:46:29.075Z,30.60
2018-03-28T03:48:57.349Z,29.05
2018-03-28T03:51:25.606Z,31.35
2018-03-28T03:53:53.136Z,29.58
2018-03-28T03:56:20.641Z,30.83
2018-03-28T03:58:48.922Z,31.00
2018-03-28T04:01:17.200Z,29.95
2018-03-28T04:03:45.472Z,30.85
2018-03-28T04:06:13.748Z,32.00
2018-03-28T04:08:42.007Z,31.42
2018-03-28T04:11:09.546Z,31.37
2018-03-28T04:13:37.049Z,32.35
2018-03-28T04:16:05.316Z,31.48
2018-03-28T04:18:33.606Z,31.87
2018-03-28T04:21:01.883Z,31.33
2018-03-28T04:23:29.835Z,33.25
2018-03-28T04:25:57.356Z,31.45
2018-03-28T04:28:24.856Z,31.92
2018-03-28T04:30:53.131Z,32.65
2018-03-28T04:33:20.636Z,32.20
2018-03-28T04:35:48.159Z,34.70
2018-03-28T04:38:16.415Z,35.75
2018-03-28T04:40:43.926Z,35.67
2018-03-28T04:43:11.448Z,36.22
2018-03-28T04:45:39.723Z,37.17
2018-03-28T04:48:07.992Z,39.28
2018-03-28T04:50:35.496Z,38.08
2018-03-28T04:53:03.154Z,37.63
2018-03-28T04:55:30.684Z,40.78
2018-03-28T04:57:58.942Z,41.97
2018-03-28T05:00:26.458Z,41.30
2018-03-28T05:02:53.964Z,40.33
2018-03-28T05:05:21.472Z,41.58
2018-03-28T05:07:48.965Z,42.45
2018-03-28T05:10:16.501Z,42.28
2018-03-28T05:12:43.988Z,40.67
2018-03-28T05:15:11.533Z,44.70
2018-03-28T05:17:39.904Z,44.53
2018-03-28T05:20:07.416Z,45.45
2018-03-28T05:22:35.718Z,48.92
2018-03-28T05:25:03.208Z,48.70
2018-03-28T05:27:30.711Z,44.72
2018-03-28T05:29:59.092Z,44.80
2018-03-28T05:32:26.605Z,45.50
2018-03-28T05:34:54.104Z,45.65
2018-03-28T05:37:22.401Z,44.42
2018-03-28T05:39:49.911Z,45.00
2018-03-28T05:42:17.429Z,47.88
2018-03-28T05:44:44.920Z,46.30
2018-03-28T05:47:12.435Z,46.67
2018-03-28T05:49:39.965Z,44.28
2018-03-28T05:52:08.247Z,45.63
2018-03-28T05:54:36.563Z,45.58
2018-03-28T05:57:04.060Z,46.55
2018-03-28T05:59:31.559Z,46.60
2018-03-28T06:01:59.195Z,46.72
2018-03-28T06:04:27.477Z,47.60
2018-03-28T06:06:55.752Z,46.63
2018-03-28T06:09:24.027Z,47.90
2018-03-28T06:11:52.327Z,48.55
2018-03-28T06:14:19.839Z,47.95
2018-03-28T06:16:47.348Z,47.08
2018-03-28T06:19:14.845Z,51.08
2018-03-28T06:21:43.868Z,47.65
2018-03-28T06:24:11.404Z,47.72
2018-03-28T06:26:38.893Z,50.30
2018-03-28T06:29:07.160Z,49.70
2018-03-28T06:31:34.683Z,50.83
2018-03-28T06:34:02.204Z,48.53
2018-03-28T06:36:29.769Z,48.80
2018-03-28T06:38:57.231Z,49.38
2018-03-28T06:41:24.743Z,53.15
2018-03-28T06:43:52.628Z,51.03
2018-03-28T06:46:20.931Z,54.55
2018-03-28T06:48:49.304Z,55.20
2018-03-28T06:51:17.125Z,53.40
2018-03-28T06:53:44.645Z,52.03
2018-03-28T06:56:12.147Z,53.58
2018-03-28T06:58:39.644Z,50.65
2018-03-28T07:01:07.251Z,53.33
2018-03-28T07:03:34.964Z,54.15
2018-03-28T07:06:03.239Z,50.65
2018-03-28T07:08:31.553Z,51.65
2018-03-28T07:10:59.078Z,50.12
2018-03-28T07:13:27.355Z,51.17
2018-03-28T07:15:55.703Z,51.03
2018-03-28T07:18:23.256Z,47.80
2018-03-28T07:20:50.767Z,48.80
2018-03-28T07:23:18.265Z,50.33
2018-03-28T07:25:45.805Z,48.13
2018-03-28T07:28:13.300Z,49.28
2018-03-28T07:30:40.813Z,48.85
2018-03-28T07:33:08.324Z,46.80
2018-03-28T07:35:35.830Z,47.38
2018-03-28T07:38:03.367Z,47.67
2018-03-28T07:40:30.911Z,49.35
2018-03-28T07:42:59.186Z,47.30
2018-03-28T07:45:27.865Z,48.97
2018-03-28T07:47:56.854Z,48.75
2018-03-28T07:50:24.337Z,48.58
2018-03-28T07:52:52.598Z,49.05
2018-03-28T07:55:20.874Z,47.20
2018-03-28T07:57:49.154Z,49.22
2018-03-28T08:00:17.430Z,48.38
2018-03-28T08:02:45.713Z,49.25
2018-03-28T08:05:13.279Z,47.83
2018-03-28T08:07:40.791Z,47.45
2018-03-28T08:10:08.307Z,47.83
2018-03-28T08:12:35.812Z,49.45
2018-03-28T08:15:03.340Z,50.40
2018-03-28T08:17:30.859Z,49.30
2018-03-28T08:19:59.147Z,46.50
2018-03-28T08:22:27.423Z,47.10
2018-03-28T08:24:56.409Z,46.75
2018-03-28T08:27:24.708Z,49.13
2018-03-28T08:29:52.200Z,49.78
2018-03-28T08:32:19.740Z,47.67
2018-03-28T08:34:47.259Z,49.78
2018-03-28T08:37:15.531Z,47.78
2018-03-28T08:39:43.796Z,48.13
2018-03-28T08:42:12.815Z,47.72
2018-03-28T08:44:41.119Z,48.53
2018-03-28T08:47:08.622Z,48.30
2018-03-28T08:49:36.945Z,47.85
2018-03-28T08:52:04.524Z,48.63
2018-03-28T08:54:32.091Z,49.88
2018-03-28T08:56:59.614Z,48.33
2018-03-28T08:59:27.998Z,49.83
2018-03-28T09:01:55.561Z,49.05
2018-03-28T09:04:23.056Z,48.20
2018-03-28T09:06:50.575Z,48.45
2018-03-28T09:09:18.080Z,52.00
2018-03-28T09:11:45.592Z,50.28
2018-03-28T09:14:13.121Z,49.63
2018-03-28T09:16:40.640Z,49.80
2018-03-28T09:19:08.216Z,47.13
2018-03-28T09:21:35.805Z,49.47
2018-03-28T09:24:04.067Z,49.88
2018-03-28T09:26:31.714Z,49.17
2018-03-28T09:28:59.203Z,47.43
2018-03-28T09:31:26.722Z,49.00
2018-03-28T09:33:54.592Z,48.20
2018-03-28T09:36:22.086Z,48.43
2018-03-28T09:38:49.670Z,54.37
2018-03-28T09:41:17.937Z,48.30
2018-03-28T09:43:46.220Z,48.90
2018-03-28T09:46:15.247Z,48.60
2018-03-28T09:48:42.763Z,50.83
2018-03-28T09:51:11.080Z,48.07
2018-03-28T09:53:38.598Z,50.20
2018-03-28T09:56:06.948Z,46.07
2018-03-28T09:58:34.402Z,45.60
2018-03-28T10:01:07.735Z,47.47
2018-03-28T10:03:41.827Z,45.67
2018-03-28T10:06:09.340Z,47.37
2018-03-28T10:08:36.838Z,47.27
2018-03-28T10:11:04.406Z,47.43
2018-03-28T10:13:31.912Z,45.97
2018-03-28T10:15:59.414Z,46.77
2018-03-28T10:18:26.924Z,45.70
2018-03-28T10:20:54.428Z,45.80
2018-03-28T10:23:21.920Z,48.13
2018-03-28T10:25:50.210Z,49.37
2018-03-28T10:28:17.843Z,47.77
2018-03-28T10:30:45.346Z,48.43
2018-03-28T10:33:12.861Z,48.17
2018-03-28T10:35:40.470Z,48.43
2018-03-28T10:38:08.030Z,48.63
2018-03-28T10:40:35.595Z,56.30
2018-03-28T10:43:03.094Z,49.80
2018-03-28T10:45:30.597Z,47.50
2018-03-28T10:47:58.118Z,49.63
2018-03-28T10:50:25.699Z,48.40
2018-03-28T10:52:54.199Z,49.47
2018-03-28T10:55:21.699Z,50.47
2018-03-28T10:57:49.198Z,49.40
2018-03-28T11:00:17.491Z,51.23
2018-03-28T11:02:45.048Z,49.90
2018-03-28T11:05:12.646Z,49.83
2018-03-28T11:07:40.237Z,49.53
2018-03-28T11:10:07.818Z,52.03
2018-03-28T11:12:35.386Z,49.23
2018-03-28T11:15:02.911Z,50.20
2018-03-28T11:17:30.426Z,50.37
2018-03-28T11:19:57.952Z,50.63
2018-03-28T11:22:26.239Z,53.43
2018-03-28T11:24:53.885Z,50.57
2018-03-28T11:27:22.168Z,49.77
2018-03-28T11:29:50.437Z,52.37
2018-03-28T11:32:18.749Z,50.20
2018-03-28T11:34:46.281Z,48.77
2018-03-28T11:37:14.551Z,49.60
2018-03-28T11:39:42.840Z,51.60
2018-03-28T11:42:10.350Z,49.17
2018-03-28T11:44:37.862Z,49.67
2018-03-28T11:47:05.409Z,50.00
2018-03-28T11:49:33.696Z,51.07
2018-03-28T11:52:01.381Z,49.37
2018-03-28T11:54:28.904Z,49.60
2018-03-28T11:56:57.197Z,49.42
2018-03-28T11:59:24.772Z,51.00
2018-03-28T12:01:52.322Z,48.83
2018-03-28T12:04:19.865Z,53.95
2018-03-28T12:06:47.399Z,50.87
2018-03-28T12:09:14.996Z,49.87
2018-03-28T12:11:42.567Z,52.07
2018-03-28T12:14:10.126Z,50.47
2018-03-28T12:16:37.670Z,50.13
2018-03-28T12:19:05.209Z,51.43
2018-03-28T12:21:33.532Z,50.67
2018-03-28T12:24:01.073Z,51.70
2018-03-28T12:26:28.632Z,50.40
2018-03-28T12:28:56.157Z,50.17
2018-03-28T12:31:25.224Z,50.55
2018-03-28T12:33:52.728Z,50.53
2018-03-28T12:36:20.999Z,50.13
2018-03-28T12:38:49.300Z,48.47
2018-03-28T12:41:16.856Z,49.28
2018-03-28T12:43:44.413Z,51.15
2018-03-28T12:46:11.933Z,48.47
2018-03-28T12:48:39.533Z,49.22
2018-03-28T12:51:07.061Z,49.63
2018-03-28T12:53:35.367Z,49.50
2018-03-28T12:56:03.648Z,48.87
2018-03-28T12:58:31.153Z,47.33
2018-03-28T13:01:00.175Z,46.40
2018-03-28T13:03:28.451Z,49.50
2018-03-28T13:05:56.744Z,48.10
2018-03-28T13:08:24.312Z,48.77
2018-03-28T13:10:51.870Z,47.70
2018-03-28T13:13:19.804Z,49.63
2018-03-28T13:15:47.334Z,48.03
2018-03-28T13:18:14.848Z,48.43
2018-03-28T13:20:42.388Z,49.72
2018-03-28T13:23:09.915Z,48.67
2018-03-28T13:25:37.485Z,49.30
2018-03-28T13:28:05.003Z,48.50
2018-03-28T13:30:32.540Z,50.20
2018-03-28T13:33:00.821Z,50.40
2018-03-28T13:35:28.423Z,48.90
2018-03-28T13:37:55.984Z,50.25
2018-03-28T13:40:23.512Z,50.63
2018-03-28T13:42:51.124Z,50.00
2018-03-28T13:45:18.684Z,51.17
2018-03-28T13:47:46.302Z,50.03
2018-03-28T13:50:14.333Z,50.65
2018-03-28T13:52:41.844Z,52.35
2018-03-28T13:55:09.415Z,50.80
2018-03-28T13:57:36.923Z,51.27
2018-03-28T14:00:06.127Z,52.55
2018-03-28T14:02:34.395Z,52.30
2018-03-28T14:05:01.940Z,55.03
2018-03-28T14:07:29.449Z,55.73
2018-03-28T14:09:56.957Z,54.17
2018-03-28T14:12:24.503Z,55.78
2018-03-28T14:14:52.007Z,52.33
2018-03-28T14:17:20.290Z,54.27
2018-03-28T14:19:47.796Z,56.15
2018-03-28T14:22:15.400Z,55.30
2018-03-28T14:24:43.714Z,55.13
2018-03-28T14:27:11.240Z,55.17
2018-03-28T14:29:39.520Z,52.23
2018-03-28T14:32:07.036Z,53.40
2018-03-28T14:34:34.543Z,54.60
2018-03-28T14:37:02.065Z,57.50
2018-03-28T14:39:29.565Z,53.23
2018-03-28T14:41:57.154Z,56.07
2018-03-28T14:44:24.649Z,54.03
2018-03-28T14:46:52.932Z,55.37
2018-03-28T14:49:21.232Z,54.20
2018-03-28T14:51:48.736Z,54.40
2018-03-28T14:54:16.252Z,56.10
2018-03-28T14:56:43.771Z,54.40
2018-03-28T14:59:11.282Z,56.13
2018-03-28T15:01:38.811Z,54.28
2018-03-28T15:04:07.079Z,57.63
2018-03-28T15:06:35.499Z,56.13
2018-03-28T15:09:03.022Z,57.13
2018-03-28T15:11:31.324Z,56.47
2018-03-28T15:13:59.041Z,56.78
2018-03-28T15:16:26.590Z,55.65
2018-03-28T15:18:54.113Z,56.22
2018-03-28T15:21:21.646Z,55.88
2018-03-28T15:23:50.048Z,54.47
2018-03-28T15:26:17.657Z,55.93
2018-03-28T15:28:45.258Z,57.37
2018-03-28T15:31:12.802Z,56.60
2018-03-28T15:33:41.108Z,60.55
2018-03-28T15:36:08.636Z,60.78
2018-03-28T15:38:36.929Z,59.07
2018-03-28T15:41:04.486Z,58.40
2018-03-28T15:43:32.979Z,59.75
2018-03-28T15:46:00.503Z,59.47
2018-03-28T15:48:28.816Z,59.55
2018-03-28T15:50:56.440Z,60.23
2018-03-28T15:53:24.720Z,61.70
2018-03-28T15:55:53.021Z,60.25
2018-03-28T15:58:20.575Z,60.38
2018-03-28T16:00:48.914Z,60.22
2018-03-28T16:03:16.440Z,62.28
2018-03-28T16:05:44.073Z,60.63
2018-03-28T16:08:12.353Z,59.80
2018-03-28T16:10:39.901Z,58.60
2018-03-28T16:13:08.212Z,61.72
2018-03-28T16:15:35.753Z,61.95
2018-03-28T16:18:03.297Z,60.03
2018-03-28T16:20:31.582Z,62.42
2018-03-28T16:22:59.889Z,60.58
2018-03-28T16:25:27.408Z,60.47
2018-03-28T16:27:55.764Z,61.70
2018-03-28T16:30:23.289Z,59.72
2018-03-28T16:32:50.815Z,61.20
2018-03-28T16:35:19.099Z,62.15
2018-03-28T16:37:46.620Z,62.50
2018-03-28T16:40:14.138Z,62.08
2018-03-28T16:42:41.670Z,62.35
2018-03-28T16:45:09.196Z,62.65
2018-03-28T16:47:36.738Z,60.27
2018-03-28T16:50:04.294Z,62.17
2018-03-28T16:52:31.821Z,59.47
2018-03-28T16:54:59.334Z,61.35
2018-03-28T16:57:26.984Z,61.10
2018-03-28T16:59:54.536Z,58.83
2018-03-28T17:02:22.063Z,61.33
2018-03-28T17:04:49.568Z,61.37
2018-03-28T17:07:17.156Z,62.70
2018-03-28T17:09:44.653Z,62.28
2018-03-28T17:12:12.203Z,61.10
2018-03-28T17:14:39.707Z,62.60
2018-03-28T17:17:07.225Z,61.92
2018-03-28T17:19:34.764Z,61.55
2018-03-28T17:22:02.311Z,60.85
2018-03-28T17:24:30.658Z,62.78
2018-03-28T17:26:58.175Z,62.03
2018-03-28T17:29:25.714Z,62.55
2018-03-28T17:31:54.030Z,61.73
2018-03-28T17:34:24.572Z,60.58
2018-03-28T17:36:52.161Z,63.28
2018-03-28T17:39:19.675Z,60.40
2018-03-28T17:41:47.240Z,62.42
2018-03-28T17:44:14.764Z,64.70
2018-03-28T17:46:43.053Z,62.22
2018-03-28T17:49:10.558Z,60.95
2018-03-28T17:51:38.084Z,62.00
2018-03-28T17:54:05.599Z,66.07
2018-03-28T17:56:33.884Z,62.93
2018-03-28T17:59:02.218Z,62.10
2018-03-28T18:01:29.772Z,60.35
2018-03-28T18:03:57.290Z,62.43
2018-03-28T18:06:25.575Z,62.80
2018-03-28T18:08:53.096Z,72.53
2018-03-28T18:11:22.133Z,822.33
2018-03-28T18:13:49.671Z,776.70
2018-03-28T18:16:18.033Z,700.62
2018-03-28T18:18:45.543Z,374.10
2018-03-28T18:21:13.195Z,78.15
2018-03-28T18:23:40.780Z,69.60
2018-03-28T18:26:08.595Z,66.07
2018-03-28T18:28:36.130Z,62.80
2018-03-28T18:31:03.651Z,64.07
2018-03-28T18:33:31.173Z,65.40
2018-03-28T18:35:59.448Z,66.10
2018-03-28T18:38:27.721Z,63.73
2018-03-28T18:40:55.289Z,195.37
2018-03-28T18:43:23.588Z,70.72
2018-03-28T18:45:51.106Z,65.50
2018-03-28T18:48:19.382Z,65.68
2018-03-28T18:50:46.899Z,64.97
2018-03-28T18:53:14.444Z,103.03
2018-03-28T18:55:42.077Z,66.97
2018-03-28T18:58:09.609Z,65.27
2018-03-28T19:00:37.180Z,64.47
2018-03-28T19:03:04.702Z,68.68
2018-03-28T19:05:32.396Z,68.93
2018-03-28T19:08:00.126Z,71.03
2018-03-28T19:10:27.632Z,67.47
2018-03-28T19:12:55.385Z,69.47
2018-03-28T19:15:23.004Z,69.20
2018-03-28T19:17:50.552Z,69.30
2018-03-28T19:20:18.072Z,69.60
2018-03-28T19:22:45.612Z,72.72
2018-03-28T19:25:13.124Z,70.43
2018-03-28T19:27:40.756Z,74.55
2018-03-28T19:30:09.057Z,71.47
2018-03-28T19:32:36.593Z,76.50
2018-03-28T19:35:04.867Z,75.10
2018-03-28T19:37:32.440Z,73.37
2018-03-28T19:40:00.039Z,70.12
2018-03-28T19:42:27.544Z,76.60
2018-03-28T19:44:55.068Z,71.20
2018-03-28T19:47:22.588Z,73.47
2018-03-28T19:49:50.124Z,73.00
2018-03-28T19:52:17.628Z,76.03
2018-03-28T19:54:45.147Z,71.50
2018-03-28T19:57:12.683Z,74.50
2018-03-28T19:59:40.420Z,109.87
2018-03-28T20:02:08.019Z,121.13
2018-03-28T20:04:35.516Z,74.53
2018-03-28T20:07:03.064Z,72.63
2018-03-28T20:09:31.439Z,69.27
2018-03-28T20:11:58.963Z,71.93
2018-03-28T20:14:26.492Z,74.00
2018-03-28T20:16:54.008Z,69.80
2018-03-28T20:19:21.576Z,71.47
2018-03-28T20:21:49.093Z,71.03
2018-03-28T20:24:16.598Z,72.53
2018-03-28T20:26:44.992Z,73.00
2018-03-28T20:29:12.510Z,73.23
2018-03-28T20:31:41.217Z,69.53
2018-03-28T20:34:08.858Z,75.90
2018-03-28T20:36:36.435Z,75.70
2018-03-28T20:39:03.939Z,76.53
2018-03-28T20:41:31.448Z,72.90
2018-03-28T20:43:58.995Z,73.82
2018-03-28T20:46:26.561Z,76.03
2018-03-28T20:48:54.067Z,76.97
2018-03-28T20:51:21.679Z,76.13
2018-03-28T20:53:49.190Z,80.53
2018-03-28T20:56:16.712Z,77.77
2018-03-28T20:58:44.406Z,80.65
2018-03-28T21:01:11.945Z,78.68
2018-03-28T21:03:39.523Z,77.50
2018-03-28T21:06:07.026Z,75.63
2018-03-28T21:08:34.627Z,76.43
2018-03-28T21:11:02.897Z,77.70
2018-03-28T21:13:31.152Z,111.63
2018-03-28T21:15:59.428Z,92.00
2018-03-28T21:18:26.944Z,75.87
2018-03-28T21:20:54.460Z,68.50
2018-03-28T21:23:22.808Z,67.63
2018-03-28T21:25:50.427Z,70.77
2018-03-28T21:28:17.923Z,70.13
2018-03-28T21:30:45.463Z,72.27
2018-03-28T21:33:12.960Z,73.13
2018-03-28T21:35:40.485Z,70.03
2018-03-28T21:38:08.001Z,70.97
2018-03-28T21:40:36.306Z,71.00
2018-03-28T21:43:03.812Z,71.27
2018-03-28T21:45:31.323Z,72.20
2018-03-28T21:47:58.866Z,74.87
2018-03-28T21:50:26.383Z,70.00
2018-03-28T21:52:53.900Z,70.67
2018-03-28T21:55:21.421Z,69.17
2018-03-28T21:57:49.716Z,72.93
2018-03-28T22:00:17.248Z,75.43
2018-03-28T22:02:44.754Z,72.60
2018-03-28T22:05:12.275Z,74.00
2018-03-28T22:07:40.570Z,71.90
2018-03-28T22:10:08.078Z,72.43
2018-03-28T22:12:35.607Z,73.77
2018-03-28T22:15:03.105Z,72.57
2018-03-28T22:17:30.631Z,74.03
2018-03-28T22:19:58.174Z,72.33
2018-03-28T22:22:25.714Z,72.07
2018-03-28T22:24:54.000Z,74.33
2018-03-28T22:27:21.562Z,74.37
2018-03-28T22:29:49.826Z,72.70
2018-03-28T22:32:18.116Z,74.10
2018-03-28T22:34:45.638Z,77.93
2018-03-28T22:37:13.167Z,74.70
2018-03-28T22:39:40.667Z,72.77
2018-03-28T22:42:08.173Z,75.93
2018-03-28T22:44:35.669Z,73.50
2018-03-28T22:47:03.217Z,75.37
2018-03-28T22:49:30.745Z,76.23
2018-03-28T22:51:58.250Z,74.97
2018-03-28T22:54:25.753Z,73.57
2018-03-28T22:56:53.269Z,70.07
2018-03-28T22:59:20.764Z,69.47
2018-03-28T23:01:49.042Z,72.33
2018-03-28T23:04:16.546Z,75.97
2018-03-28T23:06:44.078Z,72.00
2018-03-28T23:09:11.594Z,71.07
2018-03-28T23:11:39.955Z,72.03
2018-03-28T23:14:07.446Z,68.57
2018-03-28T23:16:35.953Z,73.60
2018-03-28T23:19:03.561Z,76.43
2018-03-28T23:21:31.920Z,75.70
2018-03-28T23:24:00.168Z,75.10
2018-03-28T23:26:27.794Z,73.30
2018-03-28T23:28:56.144Z,69.03
2018-03-28T23:31:23.741Z,72.37
2018-03-28T23:33:51.388Z,71.97
2018-03-28T23:36:19.824Z,72.10
2018-03-28T23:38:47.412Z,72.17
2018-03-28T23:41:15.773Z,69.77
2018-03-28T23:43:43.360Z,71.00
2018-03-28T23:46:11.801Z,74.07
2018-03-28T23:48:39.556Z,73.00
2018-03-28T23:51:07.146Z,72.17
2018-03-28T23:53:34.772Z,68.37
2018-03-28T23:56:02.370Z,67.10
2018-03-28T23:58:30.060Z,67.00
